sensor_id;sensor_type;location;lat;lon;timestamp;pressure;altitude;pressure_sealevel;temperature;humidity
30554;BME280;17335;50.720;7.452;2022-07-25T00:00:24;98904.72;;;22.13;100.00
30554;BME280;17335;50.720;7.452;2022-07-25T00:02:51;98899.56;;;22.04;100.00
30554;BME280;17335;50.720;7.452;2022-07-25T00:05:18;98889.81;;;22.08;100.00
30554;BME280;17335;50.720;7.452;2022-07-25T00:07:45;98900.59;;;22.03;100.00
30554;BME280;17335;50.720;7.452;2022-07-25T00:10:13;98895.38;;;22.02;100.00
30554;BME280;17335;50.720;7.452;2022-07-25T00:12:41;98898.25;;;22.07;100.00
30554;BME280;17335;50.720;7.452;2022-07-25T00:15:08;98888.47;;;21.99;100.00
30554;BME280;17335;50.720;7.452;2022-07-25T00:17:35;98887.88;;;21.97;100.00
30554;BME280;17335;50.720;7.452;2022-07-25T00:20:03;98887.25;;;21.95;100.00
30554;BME280;17335;50.720;7.452;2022-07-25T00:22:30;98884.38;;;21.90;100.00
30554;BME280;17335;50.720;7.452;2022-07-25T00:24:56;98880.44;;;21.86;100.00
30554;BME280;17335;50.720;7.452;2022-07-25T00:27:24;98881.03;;;21.88;100.00
30554;BME280;17335;50.720;7.452;2022-07-25T00:29:50;98881.50;;;21.85;100.00
30554;BME280;17335;50.720;7.452;2022-07-25T00:32:17;98879.25;;;21.82;100.00
30554;BME280;17335;50.720;7.452;2022-07-25T00:34:44;98874.00;;;21.80;100.00
30554;BME280;17335;50.720;7.452;2022-07-25T00:37:10;98878.41;;;21.81;100.00
30554;BME280;17335;50.720;7.452;2022-07-25T00:39:37;98868.41;;;21.75;100.00
30554;BME280;17335;50.720;7.452;2022-07-25T00:42:05;98875.28;;;21.78;100.00
30554;BME280;17335;50.720;7.452;2022-07-25T00:44:33;98876.38;;;21.77;100.00
30554;BME280;17335;50.720;7.452;2022-07-25T00:47:00;98874.09;;;21.73;100.00
30554;BME280;17335;50.720;7.452;2022-07-25T00:49:26;98873.63;;;21.77;100.00
30554;BME280;17335;50.720;7.452;2022-07-25T00:51:53;98877.66;;;21.74;100.00
30554;BME280;17335;50.720;7.452;2022-07-25T00:54:20;98874.09;;;21.73;100.00
30554;BME280;17335;50.720;7.452;2022-07-25T00:56:48;98867.81;;;21.73;100.00
30554;BME280;17335;50.720;7.452;2022-07-25T00:59:15;98866.72;;;21.74;100.00
30554;BME280;17335;50.720;7.452;2022-07-25T01:01:43;98858.97;;;21.71;100.00
30554;BME280;17335;50.720;7.452;2022-07-25T01:04:10;98856.03;;;21.72;100.00
30554;BME280;17335;50.720;7.452;2022-07-25T01:06:37;98856.88;;;21.73;100.00
30554;BME280;17335;50.720;7.452;2022-07-25T01:09:04;98854.38;;;21.71;100.00
30554;BME280;17335;50.720;7.452;2022-07-25T01:11:32;98858.75;;;21.72;100.00
30554;BME280;17335;50.720;7.452;2022-07-25T01:13:58;98839.63;;;21.72;100.00
30554;BME280;17335;50.720;7.452;2022-07-25T01:16:25;98840.56;;;21.66;100.00
30554;BME280;17335;50.720;7.452;2022-07-25T01:18:51;98838.97;;;21.59;100.00
30554;BME280;17335;50.720;7.452;2022-07-25T01:21:18;98838.66;;;21.48;100.00
30554;BME280;17335;50.720;7.452;2022-07-25T01:23:44;98830.53;;;21.42;100.00
30554;BME280;17335;50.720;7.452;2022-07-25T01:26:11;98830.84;;;21.33;100.00
30554;BME280;17335;50.720;7.452;2022-07-25T01:28:37;98828.78;;;21.29;100.00
30554;BME280;17335;50.720;7.452;2022-07-25T01:31:04;98830.38;;;21.18;100.00
30554;BME280;17335;50.720;7.452;2022-07-25T01:33:33;98828.31;;;21.13;100.00
30554;BME280;17335;50.720;7.452;2022-07-25T01:36:00;98830.28;;;21.06;100.00
30554;BME280;17335;50.720;7.452;2022-07-25T01:38:26;98821.03;;;21.07;100.00
30554;BME280;17335;50.720;7.452;2022-07-25T01:40:53;98825.66;;;21.07;100.00
30554;BME280;17335;50.720;7.452;2022-07-25T01:43:20;98818.78;;;21.04;100.00
30554;BME280;17335;50.720;7.452;2022-07-25T01:45:46;98817.47;;;21.07;100.00
30554;BME280;17335;50.720;7.452;2022-07-25T01:48:13;98809.56;;;20.98;100.00
30554;BME280;17335;50.720;7.452;2022-07-25T01:50:42;98811.03;;;21.01;100.00
30554;BME280;17335;50.720;7.452;2022-07-25T01:53:08;98808.09;;;21.03;100.00
30554;BME280;17335;50.720;7.452;2022-07-25T01:55:35;98810.81;;;21.03;100.00
30554;BME280;17335;50.720;7.452;2022-07-25T01:58:02;98815.63;;;21.01;100.00
30554;BME280;17335;50.720;7.452;2022-07-25T02:00:28;98814.44;;;20.96;100.00
30554;BME280;17335;50.720;7.452;2022-07-25T02:02:55;98813.53;;;21.03;100.00
30554;BME280;17335;50.720;7.452;2022-07-25T02:05:40;98813.16;;;20.99;100.00
30554;BME280;17335;50.720;7.452;2022-07-25T02:08:07;98805.97;;;21.05;100.00
30554;BME280;17335;50.720;7.452;2022-07-25T02:10:36;98805.50;;;21.08;100.00
30554;BME280;17335;50.720;7.452;2022-07-25T02:13:03;98804.22;;;21.10;100.00
30554;BME280;17335;50.720;7.452;2022-07-25T02:15:29;98802.94;;;21.13;100.00
30554;BME280;17335;50.720;7.452;2022-07-25T02:17:56;98794.13;;;21.11;100.00
30554;BME280;17335;50.720;7.452;2022-07-25T02:20:22;98794.75;;;21.13;100.00
30554;BME280;17335;50.720;7.452;2022-07-25T02:22:49;98795.19;;;21.10;100.00
30554;BME280;17335;50.720;7.452;2022-07-25T02:25:15;98794.22;;;21.04;100.00
30554;BME280;17335;50.720;7.452;2022-07-25T02:27:42;98790.78;;;21.09;100.00
30554;BME280;17335;50.720;7.452;2022-07-25T02:30:09;98789.50;;;21.11;100.00
30554;BME280;17335;50.720;7.452;2022-07-25T02:32:36;98783.31;;;21.04;100.00
30554;BME280;17335;50.720;7.452;2022-07-25T02:35:04;98779.56;;;20.98;100.00
30554;BME280;17335;50.720;7.452;2022-07-25T02:37:38;98783.31;;;21.04;100.00
30554;BME280;17335;50.720;7.452;2022-07-25T02:40:05;98771.09;;;21.07;100.00
30554;BME280;17335;50.720;7.452;2022-07-25T02:42:32;98773.50;;;20.96;100.00
30554;BME280;17335;50.720;7.452;2022-07-25T02:44:58;98766.28;;;21.02;100.00
30554;BME280;17335;50.720;7.452;2022-07-25T02:47:25;98760.63;;;21.04;100.00
30554;BME280;17335;50.720;7.452;2022-07-25T02:49:51;98756.47;;;21.01;100.00
30554;BME280;17335;50.720;7.452;2022-07-25T02:52:18;98764.41;;;21.03;100.00
30554;BME280;17335;50.720;7.452;2022-07-25T02:54:44;98759.13;;;21.08;100.00
30554;BME280;17335;50.720;7.452;2022-07-25T02:57:11;98756.28;;;21.14;100.00
30554;BME280;17335;50.720;7.452;2022-07-25T02:59:38;98755.16;;;21.04;100.00
30554;BME280;17335;50.720;7.452;2022-07-25T03:02:04;98757.28;;;21.02;100.00
30554;BME280;17335;50.720;7.452;2022-07-25T03:04:31;98754.34;;;21.03;100.00
30554;BME280;17335;50.720;7.452;2022-07-25T03:06:58;98758.97;;;21.03;100.00
30554;BME280;17335;50.720;7.452;2022-07-25T03:09:25;98743.50;;;20.96;100.00
30554;BME280;17335;50.720;7.452;2022-07-25T03:11:52;98742.22;;;20.99;100.00
30554;BME280;17335;50.720;7.452;2022-07-25T03:14:19;98730.00;;;21.02;100.00
30554;BME280;17335;50.720;7.452;2022-07-25T03:16:45;98737.59;;;21.00;100.00
30554;BME280;17335;50.720;7.452;2022-07-25T03:19:12;98740.75;;;20.96;100.00
30554;BME280;17335;50.720;7.452;2022-07-25T03:21:39;98737.06;;;20.91;100.00
30554;BME280;17335;50.720;7.452;2022-07-25T03:24:06;98743.13;;;20.93;100.00
30554;BME280;17335;50.720;7.452;2022-07-25T03:26:33;98741.34;;;20.98;100.00
30554;BME280;17335;50.720;7.452;2022-07-25T03:28:59;98741.34;;;20.98;100.00
30554;BME280;17335;50.720;7.452;2022-07-25T03:31:26;98742.44;;;20.97;100.00
30554;BME280;17335;50.720;7.452;2022-07-25T03:33:53;98734.84;;;21.00;100.00
30554;BME280;17335;50.720;7.452;2022-07-25T03:36:20;98731.91;;;21.01;100.00
30554;BME280;17335;50.720;7.452;2022-07-25T03:38:47;98739.00;;;21.02;100.00
30554;BME280;17335;50.720;7.452;2022-07-25T03:41:13;98728.94;;;21.03;100.00
30554;BME280;17335;50.720;7.452;2022-07-25T03:43:40;98726.66;;;21.00;100.00
30554;BME280;17335;50.720;7.452;2022-07-25T03:46:06;98727.41;;;21.07;100.00
30554;BME280;17335;50.720;7.452;2022-07-25T03:48:33;98721.97;;;21.07;100.00
30554;BME280;17335;50.720;7.452;2022-07-25T03:51:00;98723.78;;;21.13;100.00
30554;BME280;17335;50.720;7.452;2022-07-25T03:53:32;98704.53;;;21.08;100.00
30554;BME280;17335;50.720;7.452;2022-07-25T03:55:59;98711.66;;;21.09;100.00
30554;BME280;17335;50.720;7.452;2022-07-25T03:58:25;98703.91;;;21.06;100.00
30554;BME280;17335;50.720;7.452;2022-07-25T04:00:52;98709.06;;;21.14;100.00
30554;BME280;17335;50.720;7.452;2022-07-25T04:03:20;98699.59;;;21.16;100.00
30554;BME280;17335;50.720;7.452;2022-07-25T04:05:46;98707.88;;;21.10;100.00
30554;BME280;17335;50.720;7.452;2022-07-25T04:08:13;98697.53;;;21.12;100.00
30554;BME280;17335;50.720;7.452;2022-07-25T04:10:40;98695.41;;;21.14;100.00
30554;BME280;17335;50.720;7.452;2022-07-25T04:13:07;98694.97;;;21.17;100.00
30554;BME280;17335;50.720;7.452;2022-07-25T04:15:33;98697.53;;;21.12;100.00
30554;BME280;17335;50.720;7.452;2022-07-25T04:18:00;98681.53;;;21.15;100.00
30554;BME280;17335;50.720;7.452;2022-07-25T04:20:28;98696.25;;;21.14;100.00
30554;BME280;17335;50.720;7.452;2022-07-25T04:22:54;98687.44;;;21.12;100.00
30554;BME280;17335;50.720;7.452;2022-07-25T04:25:21;98691.63;;;21.15;100.00
30554;BME280;17335;50.720;7.452;2022-07-25T04:27:47;98685.94;;;21.16;100.00
30554;BME280;17335;50.720;7.452;2022-07-25T04:30:14;98675.03;;;21.16;100.00
30554;BME280;17335;50.720;7.452;2022-07-25T04:32:50;98679.41;;;21.17;100.00
30554;BME280;17335;50.720;7.452;2022-07-25T04:35:17;98673.94;;;21.17;100.00
30554;BME280;17335;50.720;7.452;2022-07-25T04:37:43;98684.66;;;21.19;100.00
30554;BME280;17335;50.720;7.452;2022-07-25T04:40:10;98675.19;;;21.22;100.00
30554;BME280;17335;50.720;7.452;2022-07-25T04:42:37;98674.69;;;21.25;100.00
30554;BME280;17335;50.720;7.452;2022-07-25T04:45:04;98667.22;;;21.20;100.00
30554;BME280;17335;50.720;7.452;2022-07-25T04:47:31;98673.50;;;21.21;100.00
30554;BME280;17335;50.720;7.452;2022-07-25T04:49:57;98667.50;;;21.30;100.00
30554;BME280;17335;50.720;7.452;2022-07-25T04:52:24;98666.56;;;21.36;100.00
30554;BME280;17335;50.720;7.452;2022-07-25T04:54:50;98665.63;;;21.43;100.00
30554;BME280;17335;50.720;7.452;2022-07-25T04:57:17;98667.72;;;21.47;100.00
30554;BME280;17335;50.720;7.452;2022-07-25T04:59:44;98657.16;;;21.51;100.00
30554;BME280;17335;50.720;7.452;2022-07-25T05:02:10;98656.78;;;21.59;100.00
30554;BME280;17335;50.720;7.452;2022-07-25T05:04:37;98657.31;;;21.68;100.00
30554;BME280;17335;50.720;7.452;2022-07-25T05:07:10;98651.88;;;21.68;100.00
30554;BME280;17335;50.720;7.452;2022-07-25T05:09:37;98656.84;;;21.83;100.00
30554;BME280;17335;50.720;7.452;2022-07-25T05:12:03;98650.34;;;21.84;100.00
30554;BME280;17335;50.720;7.452;2022-07-25T05:14:30;98646.06;;;21.88;100.00
30554;BME280;17335;50.720;7.452;2022-07-25T05:16:56;98645.47;;;21.98;100.00
30554;BME280;17335;50.720;7.452;2022-07-25T05:19:23;98641.78;;;22.04;100.00
30554;BME280;17335;50.720;7.452;2022-07-25T05:21:49;98647.75;;;22.13;100.00
30554;BME280;17335;50.720;7.452;2022-07-25T05:24:16;98652.16;;;22.25;100.00
30554;BME280;17335;50.720;7.452;2022-07-25T05:26:43;98640.09;;;22.85;100.00
30554;BME280;17335;50.720;7.452;2022-07-25T05:29:09;98635.63;;;25.22;93.73
30554;BME280;17335;50.720;7.452;2022-07-25T05:31:36;98628.63;;;27.29;73.35
30554;BME280;17335;50.720;7.452;2022-07-25T05:34:04;98627.78;;;28.52;59.86
30554;BME280;17335;50.720;7.452;2022-07-25T05:36:31;98633.16;;;28.98;57.62
30554;BME280;17335;50.720;7.452;2022-07-25T05:38:58;98632.06;;;29.54;54.80
30554;BME280;17335;50.720;7.452;2022-07-25T05:41:25;98611.16;;;29.72;52.83
30554;BME280;17335;50.720;7.452;2022-07-25T05:43:52;98626.41;;;29.30;53.17
30554;BME280;17335;50.720;7.452;2022-07-25T05:46:18;98616.03;;;29.51;54.90
30554;BME280;17335;50.720;7.452;2022-07-25T05:48:45;98624.97;;;29.38;53.72
30554;BME280;17335;50.720;7.452;2022-07-25T05:51:12;98613.34;;;29.41;55.16
30554;BME280;17335;50.720;7.452;2022-07-25T05:53:38;98603.75;;;29.28;54.99
30554;BME280;17335;50.720;7.452;2022-07-25T05:56:05;98608.19;;;29.24;58.75
30554;BME280;17335;50.720;7.452;2022-07-25T05:58:32;98605.91;;;29.36;56.22
30554;BME280;17335;50.720;7.452;2022-07-25T06:00:59;98605.09;;;29.35;57.20
30554;BME280;17335;50.720;7.452;2022-07-25T06:03:25;98600.66;;;29.34;55.53
30554;BME280;17335;50.720;7.452;2022-07-25T06:05:54;98609.56;;;29.26;57.20
30554;BME280;17335;50.720;7.452;2022-07-25T06:08:21;98611.50;;;29.26;57.24
30554;BME280;17335;50.720;7.452;2022-07-25T06:10:48;98597.16;;;29.18;58.78
30554;BME280;17335;50.720;7.452;2022-07-25T06:13:14;98602.66;;;29.24;59.46
30554;BME280;17335;50.720;7.452;2022-07-25T06:15:41;98605.63;;;29.38;58.81
30554;BME280;17335;50.720;7.452;2022-07-25T06:18:07;98610.34;;;29.37;60.64
30554;BME280;17335;50.720;7.452;2022-07-25T06:20:34;98604.34;;;29.25;58.58
30554;BME280;17335;50.720;7.452;2022-07-25T06:23:01;98598.69;;;28.90;68.06
30554;BME280;17335;50.720;7.452;2022-07-25T06:25:29;98596.56;;;28.72;68.12
30554;BME280;17335;50.720;7.452;2022-07-25T06:27:57;98594.09;;;28.50;65.25
30554;BME280;17335;50.720;7.452;2022-07-25T06:30:23;98595.31;;;28.13;68.15
30554;BME280;17335;50.720;7.452;2022-07-25T06:32:50;98592.00;;;28.05;70.90
30554;BME280;17335;50.720;7.452;2022-07-25T06:35:17;98600.00;;;27.97;73.04
30554;BME280;17335;50.720;7.452;2022-07-25T06:37:43;98598.63;;;27.84;76.26
30554;BME280;17335;50.720;7.452;2022-07-25T06:40:10;98592.56;;;27.87;79.88
30554;BME280;17335;50.720;7.452;2022-07-25T06:42:38;98596.13;;;27.72;74.79
30554;BME280;17335;50.720;7.452;2022-07-25T06:45:06;98591.72;;;27.56;78.31
30554;BME280;17335;50.720;7.452;2022-07-25T06:47:36;98589.50;;;27.42;81.84
30554;BME280;17335;50.720;7.452;2022-07-25T06:50:07;98585.09;;;27.41;82.68
30554;BME280;17335;50.720;7.452;2022-07-25T06:52:36;98597.50;;;27.39;84.74
30554;BME280;17335;50.720;7.452;2022-07-25T06:55:04;98596.91;;;27.37;85.89
30554;BME280;17335;50.720;7.452;2022-07-25T06:57:31;98598.88;;;27.46;85.54
30554;BME280;17335;50.720;7.452;2022-07-25T06:59:57;98599.97;;;27.45;87.69
30554;BME280;17335;50.720;7.452;2022-07-25T07:02:24;98594.19;;;27.47;85.94
30554;BME280;17335;50.720;7.452;2022-07-25T07:04:50;98588.94;;;27.50;88.09
30554;BME280;17335;50.720;7.452;2022-07-25T07:07:17;98594.19;;;27.52;90.41
30554;BME280;17335;50.720;7.452;2022-07-25T07:09:44;98590.88;;;27.60;86.03
30554;BME280;17335;50.720;7.452;2022-07-25T07:12:10;98588.69;;;27.67;81.80
30554;BME280;17335;50.720;7.452;2022-07-25T07:14:38;98591.44;;;27.62;83.69
30554;BME280;17335;50.720;7.452;2022-07-25T07:17:04;98583.16;;;27.57;83.74
30554;BME280;17335;50.720;7.452;2022-07-25T07:19:31;98584.84;;;27.63;84.37
30554;BME280;17335;50.720;7.452;2022-07-25T07:21:58;98591.44;;;27.78;85.35
30554;BME280;17335;50.720;7.452;2022-07-25T07:24:25;98580.41;;;27.88;83.52
30554;BME280;17335;50.720;7.452;2022-07-25T07:26:52;98578.50;;;27.88;85.21
30554;BME280;17335;50.720;7.452;2022-07-25T07:29:20;98567.75;;;27.97;83.58
30554;BME280;17335;50.720;7.452;2022-07-25T07:31:47;98563.84;;;28.14;88.10
30554;BME280;17335;50.720;7.452;2022-07-25T07:34:16;98559.41;;;28.33;85.25
30554;BME280;17335;50.720;7.452;2022-07-25T07:36:42;98555.56;;;28.19;83.96
30554;BME280;17335;50.720;7.452;2022-07-25T07:39:09;98560.84;;;28.00;85.25
30554;BME280;17335;50.720;7.452;2022-07-25T07:41:36;98562.50;;;27.80;83.06
30554;BME280;17335;50.720;7.452;2022-07-25T07:44:04;98555.31;;;27.84;85.36
30554;BME280;17335;50.720;7.452;2022-07-25T07:46:32;98564.72;;;27.73;86.97
30554;BME280;17335;50.720;7.452;2022-07-25T07:48:58;98561.09;;;27.73;82.81
30554;BME280;17335;50.720;7.452;2022-07-25T07:51:25;98557.81;;;27.76;87.44
30554;BME280;17335;50.720;7.452;2022-07-25T07:53:51;98548.44;;;27.82;86.86
30554;BME280;17335;50.720;7.452;2022-07-25T07:56:37;98556.13;;;27.80;85.88
30554;BME280;17335;50.720;7.452;2022-07-25T07:59:04;98547.59;;;27.76;84.37
30554;BME280;17335;50.720;7.452;2022-07-25T08:01:31;98548.16;;;27.68;86.81
30554;BME280;17335;50.720;7.452;2022-07-25T08:03:58;98547.84;;;27.80;85.07
30554;BME280;17335;50.720;7.452;2022-07-25T08:06:24;98551.75;;;27.94;87.39
30554;BME280;17335;50.720;7.452;2022-07-25T08:08:53;98546.47;;;28.13;89.30
30554;BME280;17335;50.720;7.452;2022-07-25T08:11:20;98545.06;;;28.21;87.88
30554;BME280;17335;50.720;7.452;2022-07-25T08:13:46;98554.94;;;28.37;90.15
30554;BME280;17335;50.720;7.452;2022-07-25T08:16:13;98557.69;;;28.42;78.09
30554;BME280;17335;50.720;7.452;2022-07-25T08:18:40;98557.38;;;28.54;88.91
30554;BME280;17335;50.720;7.452;2022-07-25T08:21:07;98566.19;;;28.67;81.09
30554;BME280;17335;50.720;7.452;2022-07-25T08:23:35;98557.03;;;28.82;79.35
30554;BME280;17335;50.720;7.452;2022-07-25T08:26:05;98551.97;;;28.94;76.85
30554;BME280;17335;50.720;7.452;2022-07-25T08:28:32;98549.38;;;29.18;80.75
30554;BME280;17335;50.720;7.452;2022-07-25T08:30:59;98547.31;;;29.34;75.91
30554;BME280;17335;50.720;7.452;2022-07-25T08:33:27;98555.06;;;29.32;72.81
30554;BME280;17335;50.720;7.452;2022-07-25T08:35:55;98543.69;;;29.39;73.11
30554;BME280;17335;50.720;7.452;2022-07-25T08:38:26;98546.38;;;29.49;69.51
30554;BME280;17335;50.720;7.452;2022-07-25T08:40:54;98537.66;;;29.66;71.07
30554;BME280;17335;50.720;7.452;2022-07-25T08:43:22;98533.03;;;29.90;71.82
30554;BME280;17335;50.720;7.452;2022-07-25T08:45:53;98533.56;;;29.92;67.80
30554;BME280;17335;50.720;7.452;2022-07-25T08:48:24;98537.25;;;29.83;65.98
30554;BME280;17335;50.720;7.452;2022-07-25T08:50:52;98537.56;;;29.81;65.45
30554;BME280;17335;50.720;7.452;2022-07-25T08:53:20;98533.69;;;29.77;69.79
30554;BME280;17335;50.720;7.452;2022-07-25T08:56:05;98540.69;;;29.69;76.66
30554;BME280;17335;50.720;7.452;2022-07-25T08:58:42;98547.56;;;29.72;74.49
30554;BME280;17335;50.720;7.452;2022-07-25T09:01:11;98550.31;;;29.77;73.45
30554;BME280;17335;50.720;7.452;2022-07-25T09:03:41;98542.44;;;29.89;84.14
30554;BME280;17335;50.720;7.452;2022-07-25T09:06:19;98548.06;;;30.08;92.70
30554;BME280;17335;50.720;7.452;2022-07-25T09:08:52;98544.34;;;30.18;81.67
30554;BME280;17335;50.720;7.452;2022-07-25T09:11:30;98543.78;;;30.21;81.07
30554;BME280;17335;50.720;7.452;2022-07-25T09:14:02;98535.19;;;30.23;84.09
30554;BME280;17335;50.720;7.452;2022-07-25T09:16:34;98525.38;;;30.30;83.21
30554;BME280;17335;50.720;7.452;2022-07-25T09:21:33;98537.44;;;30.21;77.65
30554;BME280;17335;50.720;7.452;2022-07-25T09:24:10;98544.88;;;30.20;79.00
30554;BME280;17335;50.720;7.452;2022-07-25T09:26:48;98540.72;;;30.23;76.23
30554;BME280;17335;50.720;7.452;2022-07-25T09:29:24;98537.03;;;30.27;71.18
30554;BME280;17335;50.720;7.452;2022-07-25T09:31:53;98540.94;;;30.26;67.17
30554;BME280;17335;50.720;7.452;2022-07-25T09:34:39;98526.53;;;30.29;71.27
30554;BME280;17335;50.720;7.452;2022-07-25T09:37:08;98527.63;;;30.28;82.01
30554;BME280;17335;50.720;7.452;2022-07-25T09:47:26;98542.22;;;30.10;67.64
30554;BME280;17335;50.720;7.452;2022-07-25T09:49:53;98538.19;;;30.26;69.02
30554;BME280;17335;50.720;7.452;2022-07-25T09:52:20;98550.94;;;30.52;66.34
30554;BME280;17335;50.720;7.452;2022-07-25T09:54:47;98552.81;;;30.56;64.49
30554;BME280;17335;50.720;7.452;2022-07-25T09:57:15;98556.28;;;30.43;66.59
30554;BME280;17335;50.720;7.452;2022-07-25T09:59:42;98559.13;;;30.33;62.01
30554;BME280;17335;50.720;7.452;2022-07-25T10:02:57;98560.28;;;30.32;73.97
30554;BME280;17335;50.720;7.452;2022-07-25T10:07:49;98566.34;;;30.34;60.85
30554;BME280;17335;50.720;7.452;2022-07-25T10:10:28;98563.56;;;30.34;63.57
30554;BME280;17335;50.720;7.452;2022-07-25T10:15:50;98551.38;;;30.40;61.94
30554;BME280;17335;50.720;7.452;2022-07-25T10:18:20;98559.13;;;30.08;57.18
30554;BME280;17335;50.720;7.452;2022-07-25T10:20:49;98568.22;;;30.14;62.30
30554;BME280;17335;50.720;7.452;2022-07-25T10:23:21;98556.34;;;30.38;68.99
30554;BME280;17335;50.720;7.452;2022-07-25T10:26:22;98564.44;;;30.77;60.63
30554;BME280;17335;50.720;7.452;2022-07-25T10:28:49;98561.53;;;31.12;58.03
30554;BME280;17335;50.720;7.452;2022-07-25T10:33:59;98567.34;;;30.91;59.33
30554;BME280;17335;50.720;7.452;2022-07-25T10:36:28;98562.16;;;30.84;63.31
30554;BME280;17335;50.720;7.452;2022-07-25T10:39:08;98570.09;;;30.91;70.86
30554;BME280;17335;50.720;7.452;2022-07-25T10:41:41;98570.66;;;30.93;61.27
30554;BME280;17335;50.720;7.452;2022-07-25T10:44:14;98573.22;;;31.09;66.82
30554;BME280;17335;50.720;7.452;2022-07-25T10:46:42;98567.34;;;30.91;58.97
30554;BME280;17335;50.720;7.452;2022-07-25T10:49:19;98560.72;;;30.44;57.02
30554;BME280;17335;50.720;7.452;2022-07-25T10:51:59;98558.34;;;30.03;64.06
30554;BME280;17335;50.720;7.452;2022-07-25T10:54:34;98557.81;;;29.71;64.25
30554;BME280;17335;50.720;7.452;2022-07-25T10:57:04;98558.88;;;29.41;69.60
30554;BME280;17335;50.720;7.452;2022-07-25T10:59:36;98575.63;;;29.10;78.63
30554;BME280;17335;50.720;7.452;2022-07-25T11:02:04;98603.16;;;28.76;91.95
30554;BME280;17335;50.720;7.452;2022-07-25T11:04:32;98607.97;;;28.24;100.00
30554;BME280;17335;50.720;7.452;2022-07-25T11:07:10;98612.13;;;27.75;100.00
30554;BME280;17335;50.720;7.452;2022-07-25T11:09:41;98606.34;;;27.51;100.00
30554;BME280;17335;50.720;7.452;2022-07-25T11:12:08;98599.13;;;27.40;100.00
30554;BME280;17335;50.720;7.452;2022-07-25T11:14:37;98578.97;;;27.24;100.00
30554;BME280;17335;50.720;7.452;2022-07-25T11:17:21;98569.84;;;27.08;100.00
30554;BME280;17335;50.720;7.452;2022-07-25T11:19:58;98557.69;;;26.93;100.00
30554;BME280;17335;50.720;7.452;2022-07-25T11:22:27;98546.09;;;26.86;100.00
30554;BME280;17335;50.720;7.452;2022-07-25T11:24:54;98543.59;;;26.80;100.00
30554;BME280;17335;50.720;7.452;2022-07-25T11:27:34;98559.31;;;26.84;100.00
30554;BME280;17335;50.720;7.452;2022-07-25T11:30:11;98559.81;;;26.71;100.00
30554;BME280;17335;50.720;7.452;2022-07-25T11:32:42;98569.69;;;26.62;100.00
30554;BME280;17335;50.720;7.452;2022-07-25T11:35:10;98581.56;;;26.67;100.00
30554;BME280;17335;50.720;7.452;2022-07-25T11:37:40;98576.16;;;26.98;100.00
30554;BME280;17335;50.720;7.452;2022-07-25T11:40:07;98573.25;;;27.72;100.00
30554;BME280;17335;50.720;7.452;2022-07-25T11:42:42;98581.50;;;28.18;100.00
30554;BME280;17335;50.720;7.452;2022-07-25T11:45:27;98574.25;;;28.42;100.00
30554;BME280;17335;50.720;7.452;2022-07-25T11:50:32;98568.50;;;29.04;100.00
30554;BME280;17335;50.720;7.452;2022-07-25T11:53:00;98572.00;;;29.20;100.00
30554;BME280;17335;50.720;7.452;2022-07-25T11:55:29;98569.25;;;29.20;95.47
30554;BME280;17335;50.720;7.452;2022-07-25T11:57:59;98568.44;;;29.20;100.00
30554;BME280;17335;50.720;7.452;2022-07-25T12:00:27;98569.44;;;29.34;98.76
30554;BME280;17335;50.720;7.452;2022-07-25T12:03:06;98558.63;;;29.38;100.00
30554;BME280;17335;50.720;7.452;2022-07-25T12:05:33;98564.31;;;29.51;100.00
30554;BME280;17335;50.720;7.452;2022-07-25T12:08:20;98560.72;;;29.51;98.39
30554;BME280;17335;50.720;7.452;2022-07-25T12:10:48;98556.31;;;29.50;98.30
30554;BME280;17335;50.720;7.452;2022-07-25T12:13:22;98561.56;;;29.51;100.00
30554;BME280;17335;50.720;7.452;2022-07-25T12:15:49;98569.88;;;29.46;100.00
30554;BME280;17335;50.720;7.452;2022-07-25T12:18:17;98573.19;;;29.48;100.00
30554;BME280;17335;50.720;7.452;2022-07-25T12:20:43;98579.84;;;29.47;100.00
30554;BME280;17335;50.720;7.452;2022-07-25T12:23:11;98573.97;;;29.20;100.00
30554;BME280;17335;50.720;7.452;2022-07-25T12:25:45;98580.72;;;28.88;100.00
30554;BME280;17335;50.720;7.452;2022-07-25T12:28:12;98571.94;;;28.75;100.00
30554;BME280;17335;50.720;7.452;2022-07-25T12:30:41;98577.28;;;28.56;100.00
30554;BME280;17335;50.720;7.452;2022-07-25T12:33:08;98585.53;;;28.51;100.00
30554;BME280;17335;50.720;7.452;2022-07-25T12:35:35;98574.22;;;28.63;100.00
30554;BME280;17335;50.720;7.452;2022-07-25T12:38:04;98583.56;;;28.72;100.00
30554;BME280;17335;50.720;7.452;2022-07-25T12:40:31;98569.66;;;28.88;100.00
30554;BME280;17335;50.720;7.452;2022-07-25T12:42:59;98566.81;;;29.08;100.00
30554;BME280;17335;50.720;7.452;2022-07-25T12:45:26;98565.25;;;29.42;100.00
30554;BME280;17335;50.720;7.452;2022-07-25T12:47:53;98557.13;;;29.55;100.00
30554;BME280;17335;50.720;7.452;2022-07-25T12:50:20;98559.56;;;29.62;100.00
30554;BME280;17335;50.720;7.452;2022-07-25T12:52:47;98563.47;;;29.56;100.00
30554;BME280;17335;50.720;7.452;2022-07-25T12:55:15;98558.69;;;29.27;100.00
30554;BME280;17335;50.720;7.452;2022-07-25T12:57:43;98557.22;;;29.40;100.00
30554;BME280;17335;50.720;7.452;2022-07-25T13:00:13;98557.34;;;29.94;97.27
30554;BME280;17335;50.720;7.452;2022-07-25T13:02:40;98560.13;;;29.94;87.17
30554;BME280;17335;50.720;7.452;2022-07-25T13:05:08;98561.75;;;29.95;91.99
30554;BME280;17335;50.720;7.452;2022-07-25T13:07:35;98563.94;;;29.98;87.57
30554;BME280;17335;50.720;7.452;2022-07-25T13:10:02;98565.97;;;30.16;89.42
30554;BME280;17335;50.720;7.452;2022-07-25T13:12:29;98557.56;;;30.26;81.27
30554;BME280;17335;50.720;7.452;2022-07-25T13:14:56;98560.44;;;30.16;89.32
30554;BME280;17335;50.720;7.452;2022-07-25T13:17:23;98562.75;;;29.74;92.71
30554;BME280;17335;50.720;7.452;2022-07-25T13:19:54;98555.13;;;29.96;85.45
30554;BME280;17335;50.720;7.452;2022-07-25T13:22:21;98555.53;;;30.08;86.91